sensor_id;sensor_type;location;lat;lon;timestamp;temperature;humidity
23116;DHT22;11727;52.134;5.052;2022-07-03T00:01:28;18.30;99.90
23116;DHT22;11727;52.134;5.052;2022-07-03T00:03:54;18.30;99.90
23116;DHT22;11727;52.134;5.052;2022-07-03T00:06:20;18.20;99.90
23116;DHT22;11727;52.134;5.052;2022-07-03T00:08:45;18.20;99.90
23116;DHT22;11727;52.134;5.052;2022-07-03T00:11:11;18.20;99.90
23116;DHT22;11727;52.134;5.052;2022-07-03T00:13:37;18.10;99.90
23116;DHT22;11727;52.134;5.052;2022-07-03T00:16:03;18.10;99.90
23116;DHT22;11727;52.134;5.052;2022-07-03T00:18:31;18.00;99.90
23116;DHT22;11727;52.134;5.052;2022-07-03T00:21:06;18.00;99.90
23116;DHT22;11727;52.134;5.052;2022-07-03T00:23:49;17.90;99.90
23116;DHT22;11727;52.134;5.052;2022-07-03T00:26:21;17.90;99.90
23116;DHT22;11727;52.134;5.052;2022-07-03T00:28:47;17.90;99.90
23116;DHT22;11727;52.134;5.052;2022-07-03T00:31:13;17.80;99.90
23116;DHT22;11727;52.134;5.052;2022-07-03T00:33:41;17.80;99.90
23116;DHT22;11727;52.134;5.052;2022-07-03T00:36:07;17.70;99.90
23116;DHT22;11727;52.134;5.052;2022-07-03T00:38:33;17.70;99.90
23116;DHT22;11727;52.134;5.052;2022-07-03T00:41:01;17.70;99.90
23116;DHT22;11727;52.134;5.052;2022-07-03T00:43:27;17.60;99.90
23116;DHT22;11727;52.134;5.052;2022-07-03T00:45:53;17.50;99.90
23116;DHT22;11727;52.134;5.052;2022-07-03T00:48:20;17.50;99.90
23116;DHT22;11727;52.134;5.052;2022-07-03T00:50:49;17.50;99.90
23116;DHT22;11727;52.134;5.052;2022-07-03T00:53:27;17.40;99.90
23116;DHT22;11727;52.134;5.052;2022-07-03T00:55:55;17.30;99.90
23116;DHT22;11727;52.134;5.052;2022-07-03T00:58:21;17.30;99.90
23116;DHT22;11727;52.134;5.052;2022-07-03T01:00:48;17.20;99.90
23116;DHT22;11727;52.134;5.052;2022-07-03T01:03:17;17.20;99.90
23116;DHT22;11727;52.134;5.052;2022-07-03T01:05:51;17.20;99.90
23116;DHT22;11727;52.134;5.052;2022-07-03T01:08:49;17.10;99.90
23116;DHT22;11727;52.134;5.052;2022-07-03T01:11:28;17.10;99.90
23116;DHT22;11727;52.134;5.052;2022-07-03T01:14:28;17.10;99.90
23116;DHT22;11727;52.134;5.052;2022-07-03T01:16:58;17.10;99.90
23116;DHT22;11727;52.134;5.052;2022-07-03T01:19:43;17.10;99.90
23116;DHT22;11727;52.134;5.052;2022-07-03T01:22:32;17.10;99.90
23116;DHT22;11727;52.134;5.052;2022-07-03T01:25:24;17.10;99.90
23116;DHT22;11727;52.134;5.052;2022-07-03T01:28:13;17.10;99.90
23116;DHT22;11727;52.134;5.052;2022-07-03T01:30:42;17.10;99.90
23116;DHT22;11727;52.134;5.052;2022-07-03T01:33:10;17.10;99.90
23116;DHT22;11727;52.134;5.052;2022-07-03T01:35:43;17.10;99.90
23116;DHT22;11727;52.134;5.052;2022-07-03T01:38:12;17.00;99.90
23116;DHT22;11727;52.134;5.052;2022-07-03T01:40:39;17.00;99.90
23116;DHT22;11727;52.134;5.052;2022-07-03T01:43:10;17.00;99.90
23116;DHT22;11727;52.134;5.052;2022-07-03T01:45:42;17.00;99.90
23116;DHT22;11727;52.134;5.052;2022-07-03T01:48:11;17.00;99.90
23116;DHT22;11727;52.134;5.052;2022-07-03T01:50:37;16.90;99.90
23116;DHT22;11727;52.134;5.052;2022-07-03T01:53:05;16.90;99.90
23116;DHT22;11727;52.134;5.052;2022-07-03T01:55:32;16.90;99.90
23116;DHT22;11727;52.134;5.052;2022-07-03T01:57:58;16.80;99.90
23116;DHT22;11727;52.134;5.052;2022-07-03T02:00:24;16.80;99.90
23116;DHT22;11727;52.134;5.052;2022-07-03T02:02:57;16.80;99.90
23116;DHT22;11727;52.134;5.052;2022-07-03T02:05:33;16.80;99.90
23116;DHT22;11727;52.134;5.052;2022-07-03T02:11:05;16.80;99.90
23116;DHT22;11727;52.134;5.052;2022-07-03T02:13:38;16.80;99.90
23116;DHT22;11727;52.134;5.052;2022-07-03T02:16:08;16.80;99.90
23116;DHT22;11727;52.134;5.052;2022-07-03T02:18:36;16.70;99.90
23116;DHT22;11727;52.134;5.052;2022-07-03T02:26:16;16.80;99.90
23116;DHT22;11727;52.134;5.052;2022-07-03T02:29:02;16.80;99.90
23116;DHT22;11727;52.134;5.052;2022-07-03T02:31:40;16.90;99.90
23116;DHT22;11727;52.134;5.052;2022-07-03T02:34:07;16.80;99.90
23116;DHT22;11727;52.134;5.052;2022-07-03T02:36:35;16.90;99.90
23116;DHT22;11727;52.134;5.052;2022-07-03T02:39:04;16.90;99.90
23116;DHT22;11727;52.134;5.052;2022-07-03T02:41:53;17.00;99.90
23116;DHT22;11727;52.134;5.052;2022-07-03T02:50:06;17.00;99.90
23116;DHT22;11727;52.134;5.052;2022-07-03T03:00:33;17.10;99.90
23116;DHT22;11727;52.134;5.052;2022-07-03T03:03:00;17.10;99.90
23116;DHT22;11727;52.134;5.052;2022-07-03T03:05:31;17.20;99.90
23116;DHT22;11727;52.134;5.052;2022-07-03T03:08:37;17.10;99.90
23116;DHT22;11727;52.134;5.052;2022-07-03T03:11:09;17.20;99.90
23116;DHT22;11727;52.134;5.052;2022-07-03T03:13:47;17.10;99.90
23116;DHT22;11727;52.134;5.052;2022-07-03T03:16:14;17.20;99.90
23116;DHT22;11727;52.134;5.052;2022-07-03T03:18:41;17.20;99.90
23116;DHT22;11727;52.134;5.052;2022-07-03T03:21:16;17.10;99.90
23116;DHT22;11727;52.134;5.052;2022-07-03T03:23:50;17.20;99.90
23116;DHT22;11727;52.134;5.052;2022-07-03T03:26:21;17.10;99.90
23116;DHT22;11727;52.134;5.052;2022-07-03T03:28:48;17.20;99.90
23116;DHT22;11727;52.134;5.052;2022-07-03T03:31:14;17.10;99.90
23116;DHT22;11727;52.134;5.052;2022-07-03T03:33:45;17.10;99.90
23116;DHT22;11727;52.134;5.052;2022-07-03T03:36:12;17.20;99.90
23116;DHT22;11727;52.134;5.052;2022-07-03T03:38:39;17.20;99.90
23116;DHT22;11727;52.134;5.052;2022-07-03T03:41:08;17.20;99.90
23116;DHT22;11727;52.134;5.052;2022-07-03T03:43:34;17.20;99.90
23116;DHT22;11727;52.134;5.052;2022-07-03T03:46:01;17.10;99.90
23116;DHT22;11727;52.134;5.052;2022-07-03T03:48:27;17.20;99.90
23116;DHT22;11727;52.134;5.052;2022-07-03T03:50:54;17.20;99.90
23116;DHT22;11727;52.134;5.052;2022-07-03T03:53:20;17.20;99.90
23116;DHT22;11727;52.134;5.052;2022-07-03T03:55:53;17.20;99.90
23116;DHT22;11727;52.134;5.052;2022-07-03T03:58:19;17.20;99.90
23116;DHT22;11727;52.134;5.052;2022-07-03T04:00:44;17.20;99.90
23116;DHT22;11727;52.134;5.052;2022-07-03T04:03:12;17.20;99.90
23116;DHT22;11727;52.134;5.052;2022-07-03T04:05:38;17.20;99.90
23116;DHT22;11727;52.134;5.052;2022-07-03T04:08:03;17.20;99.90
23116;DHT22;11727;52.134;5.052;2022-07-03T04:10:29;17.20;99.90
23116;DHT22;11727;52.134;5.052;2022-07-03T04:12:55;17.20;99.90
23116;DHT22;11727;52.134;5.052;2022-07-03T04:15:20;17.20;99.90
23116;DHT22;11727;52.134;5.052;2022-07-03T04:17:50;17.20;99.90
23116;DHT22;11727;52.134;5.052;2022-07-03T04:20:16;17.20;99.90
23116;DHT22;11727;52.134;5.052;2022-07-03T04:22:42;17.20;99.90
23116;DHT22;11727;52.134;5.052;2022-07-03T04:25:07;17.20;99.90
23116;DHT22;11727;52.134;5.052;2022-07-03T04:27:33;17.20;99.90
23116;DHT22;11727;52.134;5.052;2022-07-03T04:29:59;17.20;99.90
23116;DHT22;11727;52.134;5.052;2022-07-03T04:32:24;17.30;99.90
23116;DHT22;11727;52.134;5.052;2022-07-03T04:34:50;17.30;99.90
23116;DHT22;11727;52.134;5.052;2022-07-03T04:37:15;17.20;99.90
23116;DHT22;11727;52.134;5.052;2022-07-03T04:39:44;17.30;99.90
23116;DHT22;11727;52.134;5.052;2022-07-03T04:42:09;17.30;99.90
23116;DHT22;11727;52.134;5.052;2022-07-03T04:44:35;17.30;99.90
23116;DHT22;11727;52.134;5.052;2022-07-03T04:47:01;17.30;99.90
23116;DHT22;11727;52.134;5.052;2022-07-03T04:49:26;17.30;99.90
23116;DHT22;11727;52.134;5.052;2022-07-03T04:51:52;17.40;99.90
23116;DHT22;11727;52.134;5.052;2022-07-03T04:54:18;17.40;99.90
23116;DHT22;11727;52.134;5.052;2022-07-03T04:56:46;17.50;99.90
23116;DHT22;11727;52.134;5.052;2022-07-03T04:59:12;17.50;99.90
23116;DHT22;11727;52.134;5.052;2022-07-03T05:01:37;17.60;99.90
23116;DHT22;11727;52.134;5.052;2022-07-03T05:04:03;17.50;99.90
23116;DHT22;11727;52.134;5.052;2022-07-03T05:06:29;17.60;99.90
23116;DHT22;11727;52.134;5.052;2022-07-03T05:08:54;17.60;99.90
23116;DHT22;11727;52.134;5.052;2022-07-03T05:11:20;17.70;99.90
23116;DHT22;11727;52.134;5.052;2022-07-03T05:13:46;17.70;99.90
23116;DHT22;11727;52.134;5.052;2022-07-03T05:16:11;17.80;99.90
23116;DHT22;11727;52.134;5.052;2022-07-03T05:18:37;17.80;99.90
23116;DHT22;11727;52.134;5.052;2022-07-03T05:21:03;17.90;99.90
23116;DHT22;11727;52.134;5.052;2022-07-03T05:23:29;17.90;99.90
23116;DHT22;11727;52.134;5.052;2022-07-03T05:25:54;18.00;99.90
23116;DHT22;11727;52.134;5.052;2022-07-03T05:28:20;18.00;99.90
23116;DHT22;11727;52.134;5.052;2022-07-03T05:30:46;18.00;99.90
23116;DHT22;11727;52.134;5.052;2022-07-03T05:33:12;18.10;99.90
23116;DHT22;11727;52.134;5.052;2022-07-03T05:35:37;18.10;99.90
23116;DHT22;11727;52.134;5.052;2022-07-03T05:38:03;18.20;99.90
23116;DHT22;11727;52.134;5.052;2022-07-03T05:40:28;18.30;99.90
23116;DHT22;11727;52.134;5.052;2022-07-03T05:42:54;18.30;99.90
23116;DHT22;11727;52.134;5.052;2022-07-03T05:45:20;18.30;99.90
23116;DHT22;11727;52.134;5.052;2022-07-03T05:47:45;18.40;99.90
23116;DHT22;11727;52.134;5.052;2022-07-03T05:50:11;18.40;99.90
23116;DHT22;11727;52.134;5.052;2022-07-03T05:52:37;18.50;99.90
23116;DHT22;11727;52.134;5.052;2022-07-03T05:55:03;18.50;99.90
23116;DHT22;11727;52.134;5.052;2022-07-03T05:57:29;18.70;99.90
23116;DHT22;11727;52.134;5.052;2022-07-03T05:59:54;18.70;99.90
23116;DHT22;11727;52.134;5.052;2022-07-03T06:02:20;18.70;99.90
23116;DHT22;11727;52.134;5.052;2022-07-03T06:04:45;18.80;99.90
23116;DHT22;11727;52.134;5.052;2022-07-03T06:07:11;18.80;99.90
23116;DHT22;11727;52.134;5.052;2022-07-03T06:09:37;18.90;99.90
23116;DHT22;11727;52.134;5.052;2022-07-03T06:12:02;19.00;99.90
23116;DHT22;11727;52.134;5.052;2022-07-03T06:14:28;19.00;99.90
23116;DHT22;11727;52.134;5.052;2022-07-03T06:16:53;18.90;99.90
23116;DHT22;11727;52.134;5.052;2022-07-03T06:19:19;19.00;99.90
23116;DHT22;11727;52.134;5.052;2022-07-03T06:21:45;18.90;99.90
23116;DHT22;11727;52.134;5.052;2022-07-03T06:24:10;19.00;99.90
23116;DHT22;11727;52.134;5.052;2022-07-03T06:26:36;19.00;99.90
23116;DHT22;11727;52.134;5.052;2022-07-03T06:29:02;19.10;99.90
23116;DHT22;11727;52.134;5.052;2022-07-03T06:31:27;19.20;99.90
23116;DHT22;11727;52.134;5.052;2022-07-03T06:33:53;19.20;99.90
23116;DHT22;11727;52.134;5.052;2022-07-03T06:36:18;19.30;99.90
23116;DHT22;11727;52.134;5.052;2022-07-03T06:38:47;19.30;99.90
23116;DHT22;11727;52.134;5.052;2022-07-03T06:41:12;19.40;99.90
23116;DHT22;11727;52.134;5.052;2022-07-03T06:43:39;19.60;99.90
23116;DHT22;11727;52.134;5.052;2022-07-03T06:46:04;19.60;99.90
23116;DHT22;11727;52.134;5.052;2022-07-03T06:48:30;19.60;99.90
23116;DHT22;11727;52.134;5.052;2022-07-03T06:50:55;19.70;99.90
23116;DHT22;11727;52.134;5.052;2022-07-03T06:53:21;19.70;99.90
23116;DHT22;11727;52.134;5.052;2022-07-03T06:55:53;19.80;99.90
23116;DHT22;11727;52.134;5.052;2022-07-03T06:58:18;19.90;99.90
23116;DHT22;11727;52.134;5.052;2022-07-03T07:00:44;19.90;99.90
23116;DHT22;11727;52.134;5.052;2022-07-03T07:03:10;20.00;99.90
23116;DHT22;11727;52.134;5.052;2022-07-03T07:05:35;20.10;99.90
23116;DHT22;11727;52.134;5.052;2022-07-03T07:08:01;20.20;99.90
23116;DHT22;11727;52.134;5.052;2022-07-03T07:10:27;20.30;99.90
23116;DHT22;11727;52.134;5.052;2022-07-03T07:12:52;20.40;99.90
23116;DHT22;11727;52.134;5.052;2022-07-03T07:15:18;20.60;99.90
23116;DHT22;11727;52.134;5.052;2022-07-03T07:17:44;20.60;99.90
23116;DHT22;11727;52.134;5.052;2022-07-03T07:20:09;20.80;99.90
23116;DHT22;11727;52.134;5.052;2022-07-03T07:22:35;20.80;99.90
23116;DHT22;11727;52.134;5.052;2022-07-03T07:25:01;20.90;99.90
23116;DHT22;11727;52.134;5.052;2022-07-03T07:27:27;20.90;99.90
23116;DHT22;11727;52.134;5.052;2022-07-03T07:29:55;21.00;99.90
23116;DHT22;11727;52.134;5.052;2022-07-03T07:32:21;21.00;99.90
23116;DHT22;11727;52.134;5.052;2022-07-03T07:34:46;21.10;99.90
23116;DHT22;11727;52.134;5.052;2022-07-03T07:37:12;21.20;99.90
23116;DHT22;11727;52.134;5.052;2022-07-03T07:39:38;21.20;99.90
23116;DHT22;11727;52.134;5.052;2022-07-03T07:42:03;21.40;99.90
23116;DHT22;11727;52.134;5.052;2022-07-03T07:44:29;21.50;99.90
23116;DHT22;11727;52.134;5.052;2022-07-03T07:46:55;21.60;99.90
23116;DHT22;11727;52.134;5.052;2022-07-03T07:49:20;21.70;99.90
23116;DHT22;11727;52.134;5.052;2022-07-03T07:51:46;21.80;99.90
23116;DHT22;11727;52.134;5.052;2022-07-03T07:54:11;21.80;99.90
23116;DHT22;11727;52.134;5.052;2022-07-03T07:56:37;22.00;99.90
23116;DHT22;11727;52.134;5.052;2022-07-03T07:59:03;22.10;99.90
23116;DHT22;11727;52.134;5.052;2022-07-03T08:01:28;22.20;99.90
23116;DHT22;11727;52.134;5.052;2022-07-03T08:04:12;22.10;99.90
23116;DHT22;11727;52.134;5.052;2022-07-03T08:06:56;21.90;99.90
23116;DHT22;11727;52.134;5.052;2022-07-03T08:09:22;21.80;99.90
23116;DHT22;11727;52.134;5.052;2022-07-03T08:11:48;21.70;99.90
23116;DHT22;11727;52.134;5.052;2022-07-03T08:14:14;21.50;99.90
23116;DHT22;11727;52.134;5.052;2022-07-03T08:16:39;21.50;99.90
23116;DHT22;11727;52.134;5.052;2022-07-03T08:19:06;21.50;99.90
23116;DHT22;11727;52.134;5.052;2022-07-03T08:21:32;21.40;99.90
23116;DHT22;11727;52.134;5.052;2022-07-03T08:23:57;21.40;99.90
23116;DHT22;11727;52.134;5.052;2022-07-03T08:26:23;21.30;99.90
23116;DHT22;11727;52.134;5.052;2022-07-03T08:28:49;21.40;99.90
23116;DHT22;11727;52.134;5.052;2022-07-03T08:31:17;21.40;99.90
23116;DHT22;11727;52.134;5.052;2022-07-03T08:33:43;21.50;99.90
23116;DHT22;11727;52.134;5.052;2022-07-03T08:36:08;21.50;99.90
23116;DHT22;11727;52.134;5.052;2022-07-03T08:38:34;21.50;99.90
23116;DHT22;11727;52.134;5.052;2022-07-03T08:41:02;21.50;99.90
23116;DHT22;11727;52.134;5.052;2022-07-03T08:43:28;21.50;99.90
23116;DHT22;11727;52.134;5.052;2022-07-03T08:45:56;21.70;99.90
23116;DHT22;11727;52.134;5.052;2022-07-03T08:48:24;21.80;99.90
23116;DHT22;11727;52.134;5.052;2022-07-03T08:50:50;21.90;99.90
23116;DHT22;11727;52.134;5.052;2022-07-03T08:53:18;21.90;99.90
23116;DHT22;11727;52.134;5.052;2022-07-03T08:55:45;22.00;99.90
23116;DHT22;11727;52.134;5.052;2022-07-03T08:58:13;22.20;99.90
23116;DHT22;11727;52.134;5.052;2022-07-03T09:00:40;22.30;99.90
23116;DHT22;11727;52.134;5.052;2022-07-03T09:03:09;22.40;99.90
23116;DHT22;11727;52.134;5.052;2022-07-03T09:05:35;22.40;99.90
23116;DHT22;11727;52.134;5.052;2022-07-03T09:08:02;22.20;99.90
23116;DHT22;11727;52.134;5.052;2022-07-03T09:10:31;21.90;99.90
23116;DHT22;11727;52.134;5.052;2022-07-03T09:12:56;21.80;99.90
23116;DHT22;11727;52.134;5.052;2022-07-03T09:15:23;21.70;99.90
23116;DHT22;11727;52.134;5.052;2022-07-03T09:18:03;21.50;99.90
23116;DHT22;11727;52.134;5.052;2022-07-03T09:20:34;21.40;99.90
23116;DHT22;11727;52.134;5.052;2022-07-03T09:25:53;21.20;99.90
23116;DHT22;11727;52.134;5.052;2022-07-03T09:28:24;21.30;99.90
23116;DHT22;11727;52.134;5.052;2022-07-03T09:31:02;21.60;99.90
23116;DHT22;11727;52.134;5.052;2022-07-03T09:33:28;21.90;99.90
23116;DHT22;11727;52.134;5.052;2022-07-03T09:35:54;22.20;99.90
23116;DHT22;11727;52.134;5.052;2022-07-03T09:38:21;22.30;99.90
23116;DHT22;11727;52.134;5.052;2022-07-03T09:40:54;22.20;99.90
23116;DHT22;11727;52.134;5.052;2022-07-03T09:43:24;22.30;99.90
23116;DHT22;11727;52.134;5.052;2022-07-03T09:45:58;22.30;99.90
23116;DHT22;11727;52.134;5.052;2022-07-03T09:48:42;22.30;99.90
23116;DHT22;11727;52.134;5.052;2022-07-03T09:51:19;22.40;99.90
23116;DHT22;11727;52.134;5.052;2022-07-03T09:54:03;22.50;99.90
23116;DHT22;11727;52.134;5.052;2022-07-03T09:56:38;22.50;99.90
23116;DHT22;11727;52.134;5.052;2022-07-03T09:59:14;22.40;99.90
23116;DHT22;11727;52.134;5.052;2022-07-03T10:01:45;22.40;99.90
23116;DHT22;11727;52.134;5.052;2022-07-03T10:04:22;22.40;99.90
23116;DHT22;11727;52.134;5.052;2022-07-03T10:09:26;22.10;99.90
23116;DHT22;11727;52.134;5.052;2022-07-03T10:11:53;22.00;99.90
23116;DHT22;11727;52.134;5.052;2022-07-03T10:14:23;22.00;99.90
23116;DHT22;11727;52.134;5.052;2022-07-03T10:16:50;21.90;99.90
23116;DHT22;11727;52.134;5.052;2022-07-03T10:19:20;21.80;99.90
23116;DHT22;11727;52.134;5.052;2022-07-03T10:21:53;21.70;99.90
23116;DHT22;11727;52.134;5.052;2022-07-03T10:24:24;21.50;99.90
23116;DHT22;11727;52.134;5.052;2022-07-03T10:26:51;21.40;99.90
23116;DHT22;11727;52.134;5.052;2022-07-03T10:29:20;21.20;99.90
23116;DHT22;11727;52.134;5.052;2022-07-03T10:31:46;21.00;99.90
23116;DHT22;11727;52.134;5.052;2022-07-03T10:34:21;20.90;99.90
23116;DHT22;11727;52.134;5.052;2022-07-03T10:36:52;20.70;99.90
23116;DHT22;11727;52.134;5.052;2022-07-03T10:39:38;20.50;99.90
23116;DHT22;11727;52.134;5.052;2022-07-03T10:42:08;20.10;99.90
23116;DHT22;11727;52.134;5.052;2022-07-03T10:45:10;19.60;99.90
23116;DHT22;11727;52.134;5.052;2022-07-03T10:47:49;19.10;99.90
23116;DHT22;11727;52.134;5.052;2022-07-03T10:50:22;18.90;99.90
23116;DHT22;11727;52.134;5.052;2022-07-03T10:52:49;18.60;99.90
23116;DHT22;11727;52.134;5.052;2022-07-03T10:55:16;18.50;99.90
23116;DHT22;11727;52.134;5.052;2022-07-03T10:58:03;18.50;99.90
23116;DHT22;11727;52.134;5.052;2022-07-03T11:00:29;18.50;99.90
23116;DHT22;11727;52.134;5.052;2022-07-03T11:02:54;18.60;99.90
23116;DHT22;11727;52.134;5.052;2022-07-03T11:05:24;18.70;99.90
23116;DHT22;11727;52.134;5.052;2022-07-03T11:18:37;19.30;99.90
23116;DHT22;11727;52.134;5.052;2022-07-03T11:21:18;19.50;99.90
23116;DHT22;11727;52.134;5.052;2022-07-03T11:26:43;19.70;99.90
23116;DHT22;11727;52.134;5.052;2022-07-03T11:29:25;19.70;99.90
23116;DHT22;11727;52.134;5.052;2022-07-03T11:31:51;19.70;99.90
23116;DHT22;11727;52.134;5.052;2022-07-03T11:34:20;19.60;99.90
23116;DHT22;11727;52.134;5.052;2022-07-03T11:36:46;19.50;99.90
23116;DHT22;11727;52.134;5.052;2022-07-03T11:39:18;19.40;99.90
23116;DHT22;11727;52.134;5.052;2022-07-03T11:41:47;19.30;99.90
23116;DHT22;11727;52.134;5.052;2022-07-03T11:44:18;19.20;99.90
23116;DHT22;11727;52.134;5.052;2022-07-03T11:46:48;19.10;99.90
23116;DHT22;11727;52.134;5.052;2022-07-03T11:49:22;19.00;99.90
23116;DHT22;11727;52.134;5.052;2022-07-03T11:51:58;18.90;99.90
23116;DHT22;11727;52.134;5.052;2022-07-03T11:54:24;18.80;99.90
23116;DHT22;11727;52.134;5.052;2022-07-03T11:56:50;18.60;99.90
23116;DHT22;11727;52.134;5.052;2022-07-03T11:59:15;18.50;99.90
23116;DHT22;11727;52.134;5.052;2022-07-03T12:01:42;18.30;99.90
23116;DHT22;11727;52.134;5.052;2022-07-03T12:04:16;18.20;99.90
23116;DHT22;11727;52.134;5.052;2022-07-03T12:06:53;18.20;99.90
23116;DHT22;11727;52.134;5.052;2022-07-03T12:09:21;18.00;99.90
23116;DHT22;11727;52.134;5.052;2022-07-03T12:11:58;17.90;99.90
23116;DHT22;11727;52.134;5.052;2022-07-03T12:14:42;17.90;99.90
23116;DHT22;11727;52.134;5.052;2022-07-03T12:17:16;17.80;99.90
23116;DHT22;11727;52.134;5.052;2022-07-03T12:20:01;17.70;99.90
23116;DHT22;11727;52.134;5.052;2022-07-03T12:22:34;17.60;99.90
23116;DHT22;11727;52.134;5.052;2022-07-03T12:27:31;17.60;99.90
23116;DHT22;11727;52.134;5.052;2022-07-03T12:29:57;17.70;99.90
23116;DHT22;11727;52.134;5.052;2022-07-03T12:32:24;17.80;99.90
23116;DHT22;11727;52.134;5.052;2022-07-03T12:34:50;17.90;99.90
23116;DHT22;11727;52.134;5.052;2022-07-03T12:37:15;18.00;99.90
23116;DHT22;11727;52.134;5.052;2022-07-03T12:39:46;18.10;99.90
23116;DHT22;11727;52.134;5.052;2022-07-03T12:42:19;18.20;99.90
23116;DHT22;11727;52.134;5.052;2022-07-03T12:45:02;18.30;99.90
23116;DHT22;11727;52.134;5.052;2022-07-03T12:47:30;18.40;99.90
23116;DHT22;11727;52.134;5.052;2022-07-03T12:49:57;18.40;99.90
23116;DHT22;11727;52.134;5.052;2022-07-03T12:52:24;18.40;99.90
23116;DHT22;11727;52.134;5.052;2022-07-03T12:54:49;18.40;99.90
23116;DHT22;11727;52.134;5.052;2022-07-03T12:57:15;18.40;99.90
23116;DHT22;11727;52.134;5.052;2022-07-03T13:00:11;18.40;99.90
23116;DHT22;11727;52.134;5.052;2022-07-03T13:02:38;18.50;99.90
23116;DHT22;11727;52.134;5.052;2022-07-03T13:05:21;18.60;99.90
23116;DHT22;11727;52.134;5.052;2022-07-03T13:07:52;18.70;99.90
23116;DHT22;11727;52.134;5.052;2022-07-03T13:10:21;18.60;99.90
23116;DHT22;11727;52.134;5.052;2022-07-03T13:12:53;18.40;99.90
23116;DHT22;11727;52.134;5.052;2022-07-03T13:15:19;18.30;99.90
23116;DHT22;11727;52.134;5.052;2022-07-03T13:20:24;17.90;99.90
23116;DHT22;11727;52.134;5.052;2022-07-03T13:22:50;17.80;99.90
23116;DHT22;11727;52.134;5.052;2022-07-03T13:25:17;17.80;99.90
23116;DHT22;11727;52.134;5.052;2022-07-03T13:27:43;17.70;99.90
23116;DHT22;11727;52.134;5.052;2022-07-03T13:30:11;17.60;99.90
23116;DHT22;11727;52.134;5.052;2022-07-03T13:32:37;17.60;99.90
23116;DHT22;11727;52.134;5.052;2022-07-03T13:35:04;17.60;99.90
23116;DHT22;11727;52.134;5.052;2022-07-03T13:37:29;17.60;99.90
23116;DHT22;11727;52.134;5.052;2022-07-03T13:39:55;17.70;99.90
23116;DHT22;11727;52.134;5.052;2022-07-03T13:42:21;17.80;99.90
23116;DHT22;11727;52.134;5.052;2022-07-03T13:44:46;18.10;99.90
23116;DHT22;11727;52.134;5.052;2022-07-03T13:47:12;18.20;99.90
23116;DHT22;11727;52.134;5.052;2022-07-03T13:49:38;18.30;99.90
23116;DHT22;11727;52.134;5.052;2022-07-03T13:52:04;18.30;99.90
23116;DHT22;11727;52.134;5.052;2022-07-03T13:54:30;18.20;99.90
23116;DHT22;11727;52.134;5.052;2022-07-03T13:56:55;18.20;99.90
23116;DHT22;11727;52.134;5.052;2022-07-03T13:59:21;18.10;99.90
23116;DHT22;11727;52.134;5.052;2022-07-03T14:01:47;18.10;99.90
23116;DHT22;11727;52.134;5.052;2022-07-03T14:04:16;18.00;99.90
23116;DHT22;11727;52.134;5.052;2022-07-03T14:06:41;18.10;99.90
23116;DHT22;11727;52.134;5.052;2022-07-03T14:09:07;18.00;99.90
23116;DHT22;11727;52.134;5.052;2022-07-03T14:11:33;18.00;99.90
23116;DHT22;11727;52.134;5.052;2022-07-03T14:13:58;18.00;99.90
23116;DHT22;11727;52.134;5.052;2022-07-03T14:16:24;18.00;99.90
23116;DHT22;11727;52.134;5.052;2022-07-03T14:18:49;18.20;99.90
23116;DHT22;11727;52.134;5.052;2022-07-03T14:21:15;18.40;99.90
23116;DHT22;11727;52.134;5.052;2022-07-03T14:23:41;18.50;99.90
23116;DHT22;11727;52.134;5.052;2022-07-03T14:26:06;18.80;99.90
23116;DHT22;11727;52.134;5.052;2022-07-03T14:28:32;18.90;99.90
23116;DHT22;11727;52.134;5.052;2022-07-03T14:31:16;18.90;99.90
23116;DHT22;11727;52.134;5.052;2022-07-03T14:33:54;18.90;99.90
23116;DHT22;11727;52.134;5.052;2022-07-03T14:36:20;18.90;99.90
23116;DHT22;11727;52.134;5.052;2022-07-03T14:38:46;19.10;99.90
23116;DHT22;11727;52.134;5.052;2022-07-03T14:41:12;19.30;99.90
23116;DHT22;11727;52.134;5.052;2022-07-03T14:43:38;19.50;99.90
23116;DHT22;11727;52.134;5.052;2022-07-03T14:46:04;19.60;99.90
23116;DHT22;11727;52.134;5.052;2022-07-03T14:48:29;19.60;99.90
23116;DHT22;11727;52.134;5.052;2022-07-03T14:50:55;19.60;99.90
23116;DHT22;11727;52.134;5.052;2022-07-03T14:53:21;19.60;99.90
23116;DHT22;11727;52.134;5.052;2022-07-03T14:55:48;19.40;99.90
23116;DHT22;11727;52.134;5.052;2022-07-03T14:58:21;19.40;99.90
23116;DHT22;11727;52.134;5.052;2022-07-03T15:00:52;19.40;99.90
23116;DHT22;11727;52.134;5.052;2022-07-03T15:03:34;19.40;99.90
23116;DHT22;11727;52.134;5.052;2022-07-03T15:06:08;19.40;99.90
23116;DHT22;11727;52.134;5.052;2022-07-03T15:11:06;19.60;99.90
23116;DHT22;11727;52.134;5.052;2022-07-03T15:13:35;19.70;99.90
23116;DHT22;11727;52.134;5.052;2022-07-03T15:16:01;19.80;99.90
23116;DHT22;11727;52.134;5.052;2022-07-03T15:18:28;19.80;99.90
23116;DHT22;11727;52.134;5.052;2022-07-03T15:20:54;19.80;99.90
23116;DHT22;11727;52.134;5.052;2022-07-03T15:23:20;19.90;99.90
23116;DHT22;11727;52.134;5.052;2022-07-03T15:25:48;20.00;99.90
23116;DHT22;11727;52.134;5.052;2022-07-03T15:28:16;20.00;99.90
23116;DHT22;11727;52.134;5.052;2022-07-03T15:30:49;20.10;99.90
23116;DHT22;11727;52.134;5.052;2022-07-03T15:33:15;20.20;99.90
23116;DHT22;11727;52.134;5.052;2022-07-03T15:35:57;20.30;99.90
23116;DHT22;11727;52.134;5.052;2022-07-03T15:38:42;20.30;99.90
23116;DHT22;11727;52.134;5.052;2022-07-03T15:41:20;20.30;99.90
23116;DHT22;11727;52.134;5.052;2022-07-03T15:47:06;20.30;99.90
23116;DHT22;11727;52.134;5.052;2022-07-03T15:49:39;20.40;99.90
23116;DHT22;11727;52.134;5.052;2022-07-03T15:52:21;20.40;99.90
23116;DHT22;11727;52.134;5.052;2022-07-03T15:55:01;20.30;99.90
23116;DHT22;11727;52.134;5.052;2022-07-03T16:00:07;20.20;99.90
23116;DHT22;11727;52.134;5.052;2022-07-03T16:05:33;20.20;99.90
23116;DHT22;11727;52.134;5.052;2022-07-03T16:08:01;20.10;99.90
23116;DHT22;11727;52.134;5.052;2022-07-03T16:10:27;20.10;99.90
23116;DHT22;11727;52.134;5.052;2022-07-03T16:12:55;19.90;99.90
23116;DHT22;11727;52.134;5.052;2022-07-03T16:15:24;19.80;99.90
23116;DHT22;11727;52.134;5.052;2022-07-03T16:17:54;19.80;99.90
23116;DHT22;11727;52.134;5.052;2022-07-03T16:20:25;19.90;99.90
23116;DHT22;11727;52.134;5.052;2022-07-03T16:22:55;20.00;99.90
23116;DHT22;11727;52.134;5.052;2022-07-03T16:25:21;20.10;99.90
23116;DHT22;11727;52.134;5.052;2022-07-03T16:27:49;20.30;99.90
23116;DHT22;11727;52.134;5.052;2022-07-03T16:30:14;20.30;99.90
23116;DHT22;11727;52.134;5.052;2022-07-03T16:32:41;20.30;99.90
23116;DHT22;11727;52.134;5.052;2022-07-03T16:35:10;20.40;99.90
23116;DHT22;11727;52.134;5.052;2022-07-03T16:37:48;20.40;99.90
23116;DHT22;11727;52.134;5.052;2022-07-03T16:40:16;20.50;99.90